Terminal Aerodrome Forecast
Issued by NWS

Home | Current Version | Previous Version | Text Only | Print | Product List | Glossary On
Versions: 1 2 3 4 5 6 7 8 9 10 11 12
244
FTUS44 KJAN 041122
TAFGTR
TAF
KGTR 041122Z 0412/0512 08009KT P6SM VCSH BKN030
     FM041500 09007KT 5SM BR VCSH OVC016
     FM041700 12007KT 5SM BR VCSH OVC007=

USA.gov is the U.S. government's official web portal to all federal, state and local government web resources and services.